PPGKU SBRB-SBGM
Flight info
| Callsign | PPGKU |
|---|---|
| Flight time | 0h 44m |
| Altitude | 19000 |
| Route | FILHO |
| Aircraft | SF50/L-SDGRWY/L |
Departure
| Time | 2026-04-30 13:25 |
|---|---|
| Airport | Rio Branco-Plácido de Castro International Airport (SBRB) |
Arrival
| Time | 2026-04-30 14:10 |
|---|---|
| Airport | Guajará-Mirim Airport (SBGM) |
| Time | Latitude | Longitude | Altitude | Speed | Heading |
|---|---|---|---|---|---|
| 2026-04-30 13:15 | -9.86797 | -67.89799 | 612 ft | 0 kts | 58° |
| 2026-04-30 13:20 | -9.86793 | -67.89793 | 613 ft | 2 kts | 61° |
| 2026-04-30 13:21 | -9.86790 | -67.89777 | 613 ft | 0 kts | 127° |
| 2026-04-30 13:21 | -9.86805 | -67.89768 | 613 ft | 4 kts | 148° |
| 2026-04-30 13:21 | -9.86814 | -67.89742 | 613 ft | 1 kts | 114° |
| 2026-04-30 13:22 | -9.86883 | -67.89783 | 613 ft | 11 kts | 193° |
| 2026-04-30 13:22 | -9.86978 | -67.89799 | 613 ft | 16 kts | 192° |
| 2026-04-30 13:22 | -9.87211 | -67.89877 | 613 ft | 17 kts | 228° |
| 2026-04-30 13:23 | -9.87279 | -67.89980 | 614 ft | 18 kts | 235° |
| 2026-04-30 13:23 | -9.87422 | -67.90157 | 615 ft | 11 kts | 204° |
| 2026-04-30 13:24 | -9.87415 | -67.90189 | 615 ft | 0 kts | 55° |
| 2026-04-30 13:24 | -9.87370 | -67.90125 | 615 ft | 38 kts | 58° |
| 2026-04-30 13:25 | -9.86675 | -67.89024 | 772 ft | 121 kts | 59° |
| 2026-04-30 13:25 | -9.85777 | -67.87533 | 1680 ft | 135 kts | 61° |
| 2026-04-30 13:26 | -9.84212 | -67.85190 | 3437 ft | 134 kts | 57° |
| 2026-04-30 13:26 | -9.83423 | -67.83515 | 4500 ft | 138 kts | 96° |
| 2026-04-30 13:27 | -9.84150 | -67.81697 | 5533 ft | 143 kts | 110° |
| 2026-04-30 13:28 | -9.85333 | -67.78906 | 7033 ft | 147 kts | 110° |
| 2026-04-30 13:28 | -9.86140 | -67.77000 | 7987 ft | 150 kts | 110° |
| 2026-04-30 13:28 | -9.86550 | -67.76029 | 8454 ft | 151 kts | 110° |
| 2026-04-30 13:29 | -9.87379 | -67.74066 | 9371 ft | 153 kts | 110° |
| 2026-04-30 13:29 | -9.88214 | -67.72089 | 10279 ft | 154 kts | 110° |
| 2026-04-30 13:30 | -9.89479 | -67.69089 | 11552 ft | 157 kts | 110° |
| 2026-04-30 13:31 | -9.90338 | -67.67063 | 12387 ft | 158 kts | 110° |
| 2026-04-30 13:31 | -9.91640 | -67.63978 | 13569 ft | 160 kts | 111° |
| 2026-04-30 13:32 | -9.92526 | -67.61876 | 14297 ft | 164 kts | 111° |
| 2026-04-30 13:32 | -9.93424 | -67.59749 | 15013 ft | 167 kts | 111° |
| 2026-04-30 13:33 | -9.94342 | -67.57575 | 15709 ft | 169 kts | 112° |
| 2026-04-30 13:33 | -9.95273 | -67.55367 | 16376 ft | 172 kts | 112° |
| 2026-04-30 13:34 | -9.95746 | -67.54250 | 16711 ft | 173 kts | 112° |
| 2026-04-30 13:34 | -9.97174 | -67.50865 | 17690 ft | 175 kts | 112° |
| 2026-04-30 13:35 | -9.97658 | -67.49716 | 17994 ft | 177 kts | 112° |
| 2026-04-30 13:35 | -9.98634 | -67.47405 | 18615 ft | 179 kts | 111° |
| 2026-04-30 13:36 | -9.99640 | -67.45013 | 18961 ft | 199 kts | 111° |
| 2026-04-30 13:36 | -10.00205 | -67.43671 | 18976 ft | 217 kts | 111° |
| 2026-04-30 13:36 | -10.01478 | -67.40655 | 18968 ft | 245 kts | 112° |
| 2026-04-30 13:37 | -10.02164 | -67.39025 | 18965 ft | 255 kts | 111° |
| 2026-04-30 13:37 | -10.03591 | -67.35641 | 18964 ft | 269 kts | 112° |
| 2026-04-30 13:38 | -10.05095 | -67.32072 | 18963 ft | 277 kts | 112° |
| 2026-04-30 13:38 | -10.05856 | -67.30261 | 18961 ft | 280 kts | 112° |
| 2026-04-30 13:38 | -10.07392 | -67.26611 | 18961 ft | 284 kts | 111° |
| 2026-04-30 13:39 | -10.08959 | -67.22882 | 18961 ft | 287 kts | 111° |
| 2026-04-30 13:39 | -10.10524 | -67.19164 | 18960 ft | 289 kts | 111° |
| 2026-04-30 13:40 | -10.11312 | -67.17291 | 18959 ft | 289 kts | 111° |
| 2026-04-30 13:40 | -10.12101 | -67.15411 | 18959 ft | 289 kts | 112° |
| 2026-04-30 13:40 | -10.12885 | -67.13542 | 18958 ft | 289 kts | 112° |
| 2026-04-30 13:40 | -10.13675 | -67.11668 | 18959 ft | 289 kts | 111° |
| 2026-04-30 13:41 | -10.14463 | -67.09789 | 18959 ft | 289 kts | 111° |
| 2026-04-30 13:41 | -10.15260 | -67.07893 | 18959 ft | 289 kts | 111° |
| 2026-04-30 13:41 | -10.16044 | -67.06022 | 18960 ft | 289 kts | 112° |
| 2026-04-30 13:41 | -10.16826 | -67.04163 | 18960 ft | 289 kts | 111° |
| 2026-04-30 13:42 | -10.17612 | -67.02291 | 18958 ft | 289 kts | 112° |
| 2026-04-30 13:42 | -10.18407 | -67.00394 | 18958 ft | 289 kts | 112° |
| 2026-04-30 13:42 | -10.19912 | -66.96624 | 18959 ft | 289 kts | 109° |
| 2026-04-30 13:43 | -10.20595 | -66.94698 | 18958 ft | 289 kts | 108° |
| 2026-04-30 13:43 | -10.21269 | -66.92786 | 18958 ft | 289 kts | 108° |
| 2026-04-30 13:43 | -10.21945 | -66.90869 | 18956 ft | 286 kts | 108° |
| 2026-04-30 13:43 | -10.22609 | -66.88989 | 18955 ft | 284 kts | 108° |
| 2026-04-30 13:44 | -10.23275 | -66.87104 | 18952 ft | 282 kts | 108° |
| 2026-04-30 13:44 | -10.23938 | -66.85223 | 18953 ft | 281 kts | 108° |
| 2026-04-30 13:44 | -10.24589 | -66.83373 | 18954 ft | 279 kts | 108° |
| 2026-04-30 13:44 | -10.25243 | -66.81518 | 18955 ft | 278 kts | 108° |
| 2026-04-30 13:45 | -10.26542 | -66.77832 | 18953 ft | 276 kts | 108° |
| 2026-04-30 13:45 | -10.27187 | -66.76001 | 18954 ft | 276 kts | 108° |
| 2026-04-30 13:45 | -10.27829 | -66.74181 | 18955 ft | 276 kts | 108° |
| 2026-04-30 13:46 | -10.28480 | -66.72335 | 18955 ft | 275 kts | 108° |
| 2026-04-30 13:46 | -10.29121 | -66.70514 | 18957 ft | 275 kts | 108° |
| 2026-04-30 13:46 | -10.29765 | -66.68681 | 18957 ft | 275 kts | 108° |
| 2026-04-30 13:46 | -10.30404 | -66.66868 | 18958 ft | 275 kts | 108° |
| 2026-04-30 13:47 | -10.31047 | -66.65036 | 18960 ft | 275 kts | 108° |
| 2026-04-30 13:47 | -10.31695 | -66.63193 | 18961 ft | 275 kts | 108° |
| 2026-04-30 13:47 | -10.32338 | -66.61371 | 18962 ft | 274 kts | 108° |
| 2026-04-30 13:47 | -10.32978 | -66.59547 | 18962 ft | 274 kts | 108° |
| 2026-04-30 13:48 | -10.33621 | -66.57721 | 18964 ft | 274 kts | 108° |
| 2026-04-30 13:48 | -10.34255 | -66.55913 | 18967 ft | 274 kts | 108° |
| 2026-04-30 13:48 | -10.34901 | -66.54077 | 18969 ft | 274 kts | 108° |
| 2026-04-30 13:48 | -10.35538 | -66.52262 | 18969 ft | 274 kts | 108° |
| 2026-04-30 13:49 | -10.36178 | -66.50447 | 18969 ft | 274 kts | 108° |
| 2026-04-30 13:49 | -10.36817 | -66.48624 | 18966 ft | 274 kts | 108° |
| 2026-04-30 13:49 | -10.37453 | -66.46812 | 18964 ft | 274 kts | 108° |
| 2026-04-30 13:49 | -10.38094 | -66.44987 | 18962 ft | 274 kts | 108° |
| 2026-04-30 13:50 | -10.38740 | -66.43153 | 18961 ft | 274 kts | 108° |
| 2026-04-30 13:50 | -10.40007 | -66.39539 | 18965 ft | 273 kts | 108° |
| 2026-04-30 13:50 | -10.40644 | -66.37717 | 18965 ft | 273 kts | 108° |
| 2026-04-30 13:51 | -10.41290 | -66.35881 | 18969 ft | 273 kts | 108° |
| 2026-04-30 13:51 | -10.41926 | -66.34066 | 18971 ft | 273 kts | 108° |
| 2026-04-30 13:51 | -10.42555 | -66.32275 | 18973 ft | 273 kts | 108° |
| 2026-04-30 13:51 | -10.43191 | -66.30457 | 18973 ft | 273 kts | 108° |
| 2026-04-30 13:52 | -10.43831 | -66.28633 | 18974 ft | 273 kts | 108° |
| 2026-04-30 13:52 | -10.44465 | -66.26825 | 18975 ft | 273 kts | 108° |
| 2026-04-30 13:52 | -10.45108 | -66.24988 | 18974 ft | 273 kts | 108° |
| 2026-04-30 13:52 | -10.45740 | -66.23186 | 18971 ft | 273 kts | 108° |
| 2026-04-30 13:53 | -10.46376 | -66.21368 | 18971 ft | 273 kts | 107° |
| 2026-04-30 13:53 | -10.47017 | -66.19537 | 18972 ft | 273 kts | 107° |
| 2026-04-30 13:53 | -10.47648 | -66.17735 | 18972 ft | 273 kts | 107° |
| 2026-04-30 13:53 | -10.48287 | -66.15904 | 18970 ft | 273 kts | 107° |
| 2026-04-30 13:54 | -10.48925 | -66.14082 | 18970 ft | 273 kts | 107° |
| 2026-04-30 13:54 | -10.49561 | -66.12266 | 18971 ft | 273 kts | 107° |
| 2026-04-30 13:54 | -10.50195 | -66.10448 | 18961 ft | 273 kts | 108° |
| 2026-04-30 13:54 | -10.50839 | -66.08609 | 18622 ft | 284 kts | 108° |
| 2026-04-30 13:55 | -10.51513 | -66.06682 | 18268 ft | 291 kts | 108° |
| 2026-04-30 13:55 | -10.52190 | -66.04744 | 17920 ft | 295 kts | 108° |
| 2026-04-30 13:55 | -10.52875 | -66.02787 | 17569 ft | 296 kts | 108° |
| 2026-04-30 13:55 | -10.53562 | -66.00819 | 17216 ft | 296 kts | 108° |
| 2026-04-30 13:56 | -10.54251 | -65.98852 | 16867 ft | 296 kts | 107° |
| 2026-04-30 13:56 | -10.54941 | -65.96867 | 16515 ft | 295 kts | 108° |
| 2026-04-30 13:56 | -10.55626 | -65.94910 | 16167 ft | 295 kts | 108° |
| 2026-04-30 13:56 | -10.56311 | -65.92947 | 15816 ft | 294 kts | 108° |
| 2026-04-30 13:57 | -10.56993 | -65.90988 | 15467 ft | 294 kts | 108° |
| 2026-04-30 13:57 | -10.57675 | -65.89036 | 15120 ft | 294 kts | 108° |
| 2026-04-30 13:57 | -10.58346 | -65.87111 | 14776 ft | 293 kts | 108° |
| 2026-04-30 13:57 | -10.59034 | -65.85139 | 14422 ft | 293 kts | 108° |
| 2026-04-30 13:58 | -10.59715 | -65.83186 | 14068 ft | 293 kts | 108° |
| 2026-04-30 13:58 | -10.61074 | -65.79293 | 13361 ft | 292 kts | 109° |
| 2026-04-30 13:58 | -10.61749 | -65.77354 | 13009 ft | 292 kts | 108° |
| 2026-04-30 13:59 | -10.62423 | -65.75418 | 12656 ft | 292 kts | 108° |
| 2026-04-30 13:59 | -10.63099 | -65.73476 | 12302 ft | 291 kts | 108° |
| 2026-04-30 13:59 | -10.63767 | -65.71556 | 11952 ft | 290 kts | 108° |
| 2026-04-30 13:59 | -10.64439 | -65.69625 | 11597 ft | 289 kts | 108° |
| 2026-04-30 14:00 | -10.65103 | -65.67712 | 11244 ft | 288 kts | 108° |
| 2026-04-30 14:00 | -10.66437 | -65.63882 | 10533 ft | 287 kts | 108° |
| 2026-04-30 14:00 | -10.67098 | -65.61981 | 10175 ft | 285 kts | 108° |
| 2026-04-30 14:01 | -10.67758 | -65.60085 | 9819 ft | 283 kts | 108° |
| 2026-04-30 14:01 | -10.68406 | -65.58221 | 9466 ft | 281 kts | 108° |
| 2026-04-30 14:01 | -10.69055 | -65.56354 | 9109 ft | 280 kts | 108° |
| 2026-04-30 14:01 | -10.69701 | -65.54497 | 8758 ft | 279 kts | 108° |
| 2026-04-30 14:02 | -10.70349 | -65.52628 | 8401 ft | 278 kts | 108° |
| 2026-04-30 14:02 | -10.70994 | -65.50771 | 8040 ft | 277 kts | 108° |
| 2026-04-30 14:02 | -10.71635 | -65.48927 | 7684 ft | 277 kts | 108° |
| 2026-04-30 14:02 | -10.72270 | -65.47100 | 7331 ft | 276 kts | 108° |
| 2026-04-30 14:03 | -10.72903 | -65.45275 | 6975 ft | 275 kts | 108° |
| 2026-04-30 14:03 | -10.73540 | -65.43442 | 6617 ft | 274 kts | 108° |
| 2026-04-30 14:03 | -10.74172 | -65.41615 | 6270 ft | 273 kts | 108° |
| 2026-04-30 14:03 | -10.74785 | -65.39854 | 5910 ft | 251 kts | 108° |
| 2026-04-30 14:04 | -10.75338 | -65.38261 | 5525 ft | 227 kts | 108° |
| 2026-04-30 14:04 | -10.75840 | -65.36815 | 5153 ft | 211 kts | 108° |
| 2026-04-30 14:04 | -10.76319 | -65.35432 | 4778 ft | 201 kts | 108° |
| 2026-04-30 14:04 | -10.76771 | -65.34124 | 4413 ft | 193 kts | 108° |
| 2026-04-30 14:05 | -10.77125 | -65.32838 | 4063 ft | 186 kts | 93° |
| 2026-04-30 14:05 | -10.76927 | -65.31615 | 3899 ft | 172 kts | 71° |
| 2026-04-30 14:05 | -10.76578 | -65.30462 | 3533 ft | 173 kts | 78° |
| 2026-04-30 14:05 | -10.76444 | -65.29243 | 3175 ft | 173 kts | 88° |
| 2026-04-30 14:06 | -10.76503 | -65.28043 | 2885 ft | 169 kts | 97° |
| 2026-04-30 14:06 | -10.77921 | -65.26347 | 2413 ft | 169 kts | 165° |
| 2026-04-30 14:07 | -10.79865 | -65.26095 | 2190 ft | 121 kts | 171° |
| 2026-04-30 14:07 | -10.80672 | -65.26004 | 1900 ft | 117 kts | 171° |
| 2026-04-30 14:07 | -10.81484 | -65.25920 | 1638 ft | 108 kts | 171° |
| 2026-04-30 14:08 | -10.82392 | -65.26637 | 1378 ft | 101 kts | 280° |
| 2026-04-30 14:08 | -10.82178 | -65.27307 | 1270 ft | 101 kts | 299° |
| 2026-04-30 14:08 | -10.81021 | -65.27921 | 989 ft | 98 kts | 349° |
| 2026-04-30 14:09 | -10.80339 | -65.28073 | 834 ft | 99 kts | 348° |
| 2026-04-30 14:09 | -10.79675 | -65.28236 | 603 ft | 100 kts | 350° |
| 2026-04-30 14:09 | -10.78548 | -65.28509 | 472 ft | 63 kts | 346° |
| 2026-04-30 14:10 | -10.78217 | -65.28589 | 466 ft | 25 kts | 347° |
| 2026-04-30 14:10 | -10.78116 | -65.28601 | 464 ft | 3 kts | 334° |
| 2026-04-30 14:10 | -10.78131 | -65.28603 | 464 ft | 5 kts | 168° |
| 2026-04-30 14:10 | -10.78200 | -65.28591 | 466 ft | 14 kts | 169° |
| 2026-04-30 14:11 | -10.78317 | -65.28561 | 468 ft | 18 kts | 167° |
| 2026-04-30 14:11 | -10.78458 | -65.28527 | 470 ft | 22 kts | 167° |
| 2026-04-30 14:11 | -10.78620 | -65.28490 | 473 ft | 25 kts | 166° |
| 2026-04-30 14:11 | -10.78793 | -65.28448 | 476 ft | 23 kts | 166° |
| 2026-04-30 14:12 | -10.78918 | -65.28394 | 477 ft | 14 kts | 111° |
| 2026-04-30 14:12 | -10.78908 | -65.28300 | 477 ft | 12 kts | 75° |
| 2026-04-30 14:12 | -10.78889 | -65.28220 | 477 ft | 10 kts | 75° |
| 2026-04-30 14:12 | -10.78849 | -65.28203 | 477 ft | 6 kts | 349° |
| 2026-04-30 14:13 | -10.78806 | -65.28212 | 477 ft | 5 kts | 18° |
| 2026-04-30 14:13 | -10.78803 | -65.28182 | 477 ft | 4 kts | 126° |
| 2026-04-30 14:13 | -10.78816 | -65.28164 | 477 ft | 1 kts | 125° |
| 2026-04-30 14:13 | -10.78819 | -65.28161 | 477 ft | 0 kts | 123° |